PWSweather.com
Personal Weather Stations
Station Observations
KMIEASTT1
Tawas Bay, East Tawas, MI 48730

Tawas BayEast Tawas, MI 48730

Lat: 44.28, Lon: -83.48

Elevation: 600

Station Type: Davis VantagePro

http://www.tawasbayweather.com

Latest ConditionsUpdated 3:15:11 PM EDT Thursday, Oct 18, 2018
Currently Today's Max Today's Min Today's Average
Temperature 47.4°F8.6°C 47.4°F8.6°C 28.7°F-1.8°C 34.5°F1.4°C
Dew Point 35.1°F1.7°C 36.1°F2.3°C 24.6°F-4.1°C 28.1°F-2.2°C
Winds 14.0 mph SW22.5 kmh SW 15.0 mph -24.1 kmh - - 4.6 mph 7.4 kmh
Wind Gusts 17.0 mph27.4 kmh 19.0 mph30.6 kmh - -
Humidity 62% 89% 62% 78%
Pressure 30.38 in1028.8 mb 30.53 in1033.9 mb 30.38 in1028.8 mb -
Hour Temp Dew Point Humidity Winds Wind Gusts Pressure Precip Precip Rate Daily Precip Total
03:15 PM 47.4°F8.6°C 35.1°F1.7°C 62% 14.0 mph SW22.5 kmh SW 17.0 mph27.4 kmh 30.38 in1028.8 mb 0.00 in0.0 mm 0.00 in0.0 mm 0.00 in0.0 mm
03:00 PM 46.8°F8.2°C 36.1°F2.3°C 66% 11.0 mph SW17.7 kmh SW 14.0 mph22.5 kmh 30.39 in1029.1 mb 0.00 in0.0 mm 0.00 in0.0 mm 0.00 in0.0 mm
02:45 PM 46.5°F8.1°C 35.0°F1.7°C 64% 14.0 mph WSW22.5 kmh WSW 16.0 mph25.7 kmh 30.40 in1029.5 mb 0.00 in0.0 mm 0.00 in0.0 mm 0.00 in0.0 mm
02:30 PM 45.7°F7.6°C 33.8°F1.0°C 63% 10.0 mph SW16.1 kmh SW 17.0 mph27.4 kmh 30.41 in1029.8 mb 0.00 in0.0 mm 0.00 in0.0 mm 0.00 in0.0 mm
02:15 PM 45.2°F7.3°C 33.8°F1.0°C 64% 15.0 mph WSW24.1 kmh WSW 15.0 mph24.1 kmh 30.42 in1030.1 mb 0.00 in0.0 mm 0.00 in0.0 mm 0.00 in0.0 mm
02:00 PM 44.9°F7.2°C 34.6°F1.4°C 67% 11.0 mph WSW17.7 kmh WSW 17.0 mph27.4 kmh 30.43 in1030.5 mb 0.00 in0.0 mm 0.00 in0.0 mm 0.00 in0.0 mm
01:45 PM 44.3°F6.8°C 33.7°F0.9°C 66% 11.0 mph WSW17.7 kmh WSW 16.0 mph25.7 kmh 30.44 in1030.8 mb 0.00 in0.0 mm 0.00 in0.0 mm 0.00 in0.0 mm
01:30 PM 43.8°F6.6°C 33.9°F1.1°C 68% 10.0 mph SW16.1 kmh SW 15.0 mph24.1 kmh 30.45 in1031.2 mb 0.00 in0.0 mm 0.00 in0.0 mm 0.00 in0.0 mm
01:15 PM 43.2°F6.2°C 33.7°F0.9°C 69% 15.0 mph WSW24.1 kmh WSW 19.0 mph30.6 kmh 30.46 in1031.5 mb 0.00 in0.0 mm 0.00 in0.0 mm 0.00 in0.0 mm
01:00 PM 42.5°F5.8°C 33.8°F1.0°C 71% 11.0 mph SW17.7 kmh SW 16.0 mph25.7 kmh 30.47 in1031.8 mb 0.00 in0.0 mm 0.00 in0.0 mm 0.00 in0.0 mm
12:45 PM 42.2°F5.7°C 33.1°F0.6°C 70% 10.0 mph WSW16.1 kmh WSW 16.0 mph25.7 kmh 30.47 in1031.8 mb 0.00 in0.0 mm 0.00 in0.0 mm 0.00 in0.0 mm
12:30 PM 42.0°F5.6°C 30.3°F-0.9°C 63% 10.0 mph W16.1 kmh W 14.0 mph22.5 kmh 30.48 in1032.2 mb 0.00 in0.0 mm 0.00 in0.0 mm 0.00 in0.0 mm
12:15 PM 41.3°F5.2°C 30.8°F-0.7°C 66% 11.0 mph WSW17.7 kmh WSW 17.0 mph27.4 kmh 30.49 in1032.5 mb 0.00 in0.0 mm 0.00 in0.0 mm 0.00 in0.0 mm
12:00 PM 40.9°F4.9°C 32.2°F0.1°C 71% 12.0 mph SW19.3 kmh SW 14.0 mph22.5 kmh 30.49 in1032.5 mb 0.00 in0.0 mm 0.00 in0.0 mm 0.00 in0.0 mm
11:45 AM 40.2°F4.6°C 30.5°F-0.8°C 68% 10.0 mph WNW16.1 kmh WNW 15.0 mph24.1 kmh 30.50 in1032.8 mb 0.00 in0.0 mm 0.00 in0.0 mm 0.00 in0.0 mm
11:30 AM 39.5°F4.2°C 30.5°F-0.8°C 70% 6.0 mph WSW9.7 kmh WSW 14.0 mph22.5 kmh 30.51 in1033.2 mb 0.00 in0.0 mm 0.00 in0.0 mm 0.00 in0.0 mm
11:15 AM 39.0°F3.9°C 30.8°F-0.7°C 72% 8.0 mph WSW12.9 kmh WSW 12.0 mph19.3 kmh 30.51 in1033.2 mb 0.00 in0.0 mm 0.00 in0.0 mm 0.00 in0.0 mm
11:00 AM 38.4°F3.6°C 31.2°F-0.4°C 75% 5.0 mph WSW8.0 kmh WSW 11.0 mph17.7 kmh 30.52 in1033.5 mb 0.00 in0.0 mm 0.00 in0.0 mm 0.00 in0.0 mm
10:45 AM 37.8°F3.2°C 30.9°F-0.6°C 76% 7.0 mph WSW11.3 kmh WSW 10.0 mph16.1 kmh 30.52 in1033.5 mb 0.00 in0.0 mm 0.00 in0.0 mm 0.00 in0.0 mm
10:30 AM 37.4°F3.0°C 30.5°F-0.8°C 76% 5.0 mph WSW8.0 kmh WSW 10.0 mph16.1 kmh 30.53 in1033.9 mb 0.00 in0.0 mm 0.00 in0.0 mm 0.00 in0.0 mm
10:15 AM 36.6°F2.6°C 29.4°F-1.4°C 75% 5.0 mph W8.0 kmh W 9.0 mph14.5 kmh 30.53 in1033.9 mb 0.00 in0.0 mm 0.00 in0.0 mm 0.00 in0.0 mm
10:00 AM 35.7°F2.1°C 28.9°F-1.7°C 76% 6.0 mph W9.7 kmh W 11.0 mph17.7 kmh 30.53 in1033.9 mb 0.00 in0.0 mm 0.00 in0.0 mm 0.00 in0.0 mm
09:45 AM 35.2°F1.8°C 29.0°F-1.7°C 78% 7.0 mph WSW11.3 kmh WSW 9.0 mph14.5 kmh 30.52 in1033.5 mb 0.00 in0.0 mm 0.00 in0.0 mm 0.00 in0.0 mm
09:30 AM 34.5°F1.4°C 29.6°F-1.3°C 82% 7.0 mph WSW11.3 kmh WSW 9.0 mph14.5 kmh 30.51 in1033.2 mb 0.00 in0.0 mm 0.00 in0.0 mm 0.00 in0.0 mm
09:15 AM 33.4°F0.8°C 29.4°F-1.4°C 85% 5.0 mph WSW8.0 kmh WSW 9.0 mph14.5 kmh 30.51 in1033.2 mb 0.00 in0.0 mm 0.00 in0.0 mm 0.00 in0.0 mm
09:00 AM 31.6°F-0.2°C 28.2°F-2.1°C 87% 5.0 mph WSW8.0 kmh WSW 7.0 mph11.3 kmh 30.52 in1033.5 mb 0.00 in0.0 mm 0.00 in0.0 mm 0.00 in0.0 mm
08:45 AM 30.0°F-1.1°C 26.9°F-2.8°C 88% 3.0 mph WNW4.8 kmh WNW 6.0 mph9.7 kmh 30.52 in1033.5 mb 0.00 in0.0 mm 0.00 in0.0 mm 0.00 in0.0 mm
08:30 AM 29.1°F-1.6°C 26.3°F-3.2°C 89% 2.0 mph NW3.2 kmh NW 4.0 mph6.4 kmh 30.52 in1033.5 mb 0.00 in0.0 mm 0.00 in0.0 mm 0.00 in0.0 mm
08:15 AM 28.7°F-1.8°C 25.9°F-3.4°C 89% Calm Calm 4.0 mph6.4 kmh 30.51 in1033.2 mb 0.00 in0.0 mm 0.00 in0.0 mm 0.00 in0.0 mm
08:00 AM 28.7°F-1.8°C 25.6°F-3.6°C 88% 3.0 mph NNW4.8 kmh NNW 3.0 mph4.8 kmh 30.51 in1033.2 mb 0.00 in0.0 mm 0.00 in0.0 mm 0.00 in0.0 mm
07:45 AM 28.8°F-1.8°C 25.4°F-3.7°C 87% 2.0 mph W3.2 kmh W 5.0 mph8.0 kmh 30.51 in1033.2 mb 0.00 in0.0 mm 0.00 in0.0 mm 0.00 in0.0 mm
07:30 AM 29.0°F-1.7°C 25.6°F-3.6°C 87% 3.0 mph WNW4.8 kmh WNW 5.0 mph8.0 kmh 30.51 in1033.2 mb 0.00 in0.0 mm 0.00 in0.0 mm 0.00 in0.0 mm
07:15 AM 29.0°F-1.7°C 25.6°F-3.6°C 87% 3.0 mph WNW4.8 kmh WNW 5.0 mph8.0 kmh 30.50 in1032.8 mb 0.00 in0.0 mm 0.00 in0.0 mm 0.00 in0.0 mm
07:00 AM 29.4°F-1.4°C 26.0°F-3.3°C 87% 1.0 mph NW1.6 kmh NW 3.0 mph4.8 kmh 30.50 in1032.8 mb 0.00 in0.0 mm 0.00 in0.0 mm 0.00 in0.0 mm
06:45 AM 29.9°F-1.2°C 26.0°F-3.3°C 85% 1.0 mph NW1.6 kmh NW 3.0 mph4.8 kmh 30.50 in1032.8 mb 0.00 in0.0 mm 0.00 in0.0 mm 0.00 in0.0 mm
06:30 AM 30.3°F-0.9°C 26.3°F-3.2°C 85% 2.0 mph W3.2 kmh W 6.0 mph9.7 kmh 30.50 in1032.8 mb 0.00 in0.0 mm 0.00 in0.0 mm 0.00 in0.0 mm
06:15 AM 30.3°F-0.9°C 26.3°F-3.2°C 85% Calm Calm 4.0 mph6.4 kmh 30.51 in1033.2 mb 0.00 in0.0 mm 0.00 in0.0 mm 0.00 in0.0 mm
06:00 AM 30.4°F-0.9°C 26.2°F-3.2°C 84% 2.0 mph WNW3.2 kmh WNW 4.0 mph6.4 kmh 30.51 in1033.2 mb 0.00 in0.0 mm 0.00 in0.0 mm 0.00 in0.0 mm
05:45 AM 30.8°F-0.7°C 26.3°F-3.2°C 83% 2.0 mph WNW3.2 kmh WNW 3.0 mph4.8 kmh 30.51 in1033.2 mb 0.00 in0.0 mm 0.00 in0.0 mm 0.00 in0.0 mm
05:30 AM 31.2°F-0.4°C 26.1°F-3.3°C 81% 3.0 mph WNW4.8 kmh WNW 3.0 mph4.8 kmh 30.50 in1032.8 mb 0.00 in0.0 mm 0.00 in0.0 mm 0.00 in0.0 mm
05:15 AM 31.3°F-0.4°C 26.5°F-3.1°C 82% 1.0 mph W1.6 kmh W 5.0 mph8.0 kmh 30.51 in1033.2 mb 0.00 in0.0 mm 0.00 in0.0 mm 0.00 in0.0 mm
05:00 AM 30.8°F-0.7°C 25.7°F-3.5°C 81% 2.0 mph WNW3.2 kmh WNW 5.0 mph8.0 kmh 30.51 in1033.2 mb 0.00 in0.0 mm 0.00 in0.0 mm 0.00 in0.0 mm
04:45 AM 30.5°F-0.8°C 25.4°F-3.7°C 81% Calm Calm -- 30.50 in1032.8 mb 0.00 in0.0 mm 0.00 in0.0 mm 0.00 in0.0 mm
04:30 AM 30.7°F-0.7°C 25.6°F-3.6°C 81% Calm Calm 2.0 mph3.2 kmh 30.50 in1032.8 mb 0.00 in0.0 mm 0.00 in0.0 mm 0.00 in0.0 mm
04:15 AM 30.2°F-1.0°C 25.4°F-3.7°C 82% Calm Calm 4.0 mph6.4 kmh 30.50 in1032.8 mb 0.00 in0.0 mm 0.00 in0.0 mm 0.00 in0.0 mm
04:00 AM 29.4°F-1.4°C 24.9°F-3.9°C 83% Calm Calm -- 30.50 in1032.8 mb 0.00 in0.0 mm 0.00 in0.0 mm 0.00 in0.0 mm
03:45 AM 29.5°F-1.4°C 25.3°F-3.7°C 84% Calm Calm -- 30.50 in1032.8 mb 0.00 in0.0 mm 0.00 in0.0 mm 0.00 in0.0 mm
03:30 AM 29.3°F-1.5°C 24.8°F-4.0°C 83% 1.0 mph WNW1.6 kmh WNW 2.0 mph3.2 kmh 30.50 in1032.8 mb 0.00 in0.0 mm 0.00 in0.0 mm 0.00 in0.0 mm
03:15 AM 29.6°F-1.3°C 24.8°F-4.0°C 82% Calm Calm -- 30.50 in1032.8 mb 0.00 in0.0 mm 0.00 in0.0 mm 0.00 in0.0 mm
03:00 AM 29.8°F-1.2°C 24.7°F-4.1°C 81% Calm Calm 2.0 mph3.2 kmh 30.49 in1032.5 mb 0.00 in0.0 mm 0.00 in0.0 mm 0.00 in0.0 mm
02:45 AM 30.1°F-1.1°C 24.7°F-4.1°C 80% 1.0 mph WNW1.6 kmh WNW 2.0 mph3.2 kmh 30.49 in1032.5 mb 0.00 in0.0 mm 0.00 in0.0 mm 0.00 in0.0 mm
02:30 AM 30.3°F-0.9°C 24.6°F-4.1°C 79% 1.0 mph WNW1.6 kmh WNW 4.0 mph6.4 kmh 30.49 in1032.5 mb 0.00 in0.0 mm 0.00 in0.0 mm 0.00 in0.0 mm
02:15 AM 29.8°F-1.2°C 25.0°F-3.9°C 82% 3.0 mph WNW4.8 kmh WNW 3.0 mph4.8 kmh 30.48 in1032.2 mb 0.00 in0.0 mm 0.00 in0.0 mm 0.00 in0.0 mm
02:00 AM 29.6°F-1.3°C 25.1°F-3.8°C 83% 1.0 mph WNW1.6 kmh WNW 2.0 mph3.2 kmh 30.48 in1032.2 mb 0.00 in0.0 mm 0.00 in0.0 mm 0.00 in0.0 mm
01:45 AM 29.5°F-1.4°C 24.7°F-4.1°C 82% Calm Calm 1.0 mph1.6 kmh 30.47 in1031.8 mb 0.00 in0.0 mm 0.00 in0.0 mm 0.00 in0.0 mm
01:30 AM 29.9°F-1.2°C 24.8°F-4.0°C 81% Calm Calm 1.0 mph1.6 kmh 30.47 in1031.8 mb 0.00 in0.0 mm 0.00 in0.0 mm 0.00 in0.0 mm
01:15 AM 30.0°F-1.1°C 24.6°F-4.1°C 80% 2.0 mph WNW3.2 kmh WNW 3.0 mph4.8 kmh 30.47 in1031.8 mb 0.00 in0.0 mm 0.00 in0.0 mm 0.00 in0.0 mm
01:00 AM 30.3°F-0.9°C 24.9°F-3.9°C 80% Calm Calm 2.0 mph3.2 kmh 30.45 in1031.2 mb 0.00 in0.0 mm 0.00 in0.0 mm 0.00 in0.0 mm
12:45 AM 30.4°F-0.9°C 25.3°F-3.7°C 81% 1.0 mph WNW1.6 kmh WNW 2.0 mph3.2 kmh 30.45 in1031.2 mb 0.00 in0.0 mm 0.00 in0.0 mm 0.00 in0.0 mm
12:30 AM 30.7°F-0.7°C 24.7°F-4.1°C 78% 1.0 mph WNW1.6 kmh WNW 5.0 mph8.0 kmh 30.45 in1031.2 mb 0.00 in0.0 mm 0.00 in0.0 mm 0.00 in0.0 mm
12:15 AM 31.2°F-0.4°C 25.2°F-3.8°C 78% 1.0 mph WNW1.6 kmh WNW 4.0 mph6.4 kmh 30.45 in1031.2 mb 0.00 in0.0 mm 0.00 in0.0 mm 0.00 in0.0 mm
12:00 AM 31.9°F-0.1°C 25.5°F-3.6°C 77% 1.0 mph WNW1.6 kmh WNW 4.0 mph6.4 kmh 30.45 in1031.2 mb 0.00 in0.0 mm 0.00 in0.0 mm 0.00 in0.0 mm